<?xml version="1.0" encoding="UTF-8" standalone="no" ?>
<gpx xmlns="http://www.topografix.com/GPX/1/1" xmlns:xsi="http://www.w3.org/2001/XMLSchema-instance" xsi:schemaLocation="http://www.topografix.com/GPX/1/1 http://www.topografix.com/GPX/1/1/gpx.xsd" version="1.1" creator="VisuGPX - https://www.visugpx.com">
  <metadata>
    <name>LA ROQUE SUR PERNES</name>
    <desc><![CDATA[LES RUINES DE LA ROQUE SUR PERNES]]></desc>
  </metadata>
  <trk>
    <name><![CDATA[--Roque-sur-Pernes (La)-- OR-5456711:les Ruines de la Roque sur Pernes]]></name>
    <trkseg>
      <trkpt lat="43.97799" lon="5.10872">
        <ele>272</ele>
        <time>2015-11-13T18:38:22Z</time>
      </trkpt>
      <trkpt lat="43.97795" lon="5.10881">
        <ele>272</ele>
        <time>2015-11-13T18:40:22Z</time>
      </trkpt>
      <trkpt lat="43.97788" lon="5.10892">
        <ele>272</ele>
        <time>2015-11-13T18:42:22Z</time>
      </trkpt>
      <trkpt lat="43.9778" lon="5.10902">
        <ele>272</ele>
        <time>2015-11-13T18:44:22Z</time>
      </trkpt>
      <trkpt lat="43.97771" lon="5.10913">
        <ele>271</ele>
        <time>2015-11-13T18:46:22Z</time>
      </trkpt>
      <trkpt lat="43.9776" lon="5.10932">
        <ele>273</ele>
        <time>2015-11-13T18:48:22Z</time>
      </trkpt>
      <trkpt lat="43.97688" lon="5.10963">
        <ele>275</ele>
        <time>2015-11-13T18:50:22Z</time>
      </trkpt>
      <trkpt lat="43.97617" lon="5.11031">
        <ele>289</ele>
        <time>2015-11-13T18:52:22Z</time>
      </trkpt>
      <trkpt lat="43.97538" lon="5.11104">
        <ele>305</ele>
        <time>2015-11-13T18:54:22Z</time>
      </trkpt>
      <trkpt lat="43.97497" lon="5.11139">
        <ele>310</ele>
        <time>2015-11-13T18:56:22Z</time>
      </trkpt>
      <trkpt lat="43.97462" lon="5.11186">
        <ele>316</ele>
        <time>2015-11-13T18:58:22Z</time>
      </trkpt>
      <trkpt lat="43.97422" lon="5.11213">
        <ele>322</ele>
        <time>2015-11-13T19:00:22Z</time>
      </trkpt>
      <trkpt lat="43.9738" lon="5.11222">
        <ele>327</ele>
        <time>2015-11-13T19:02:22Z</time>
      </trkpt>
      <trkpt lat="43.97341" lon="5.11235">
        <ele>329</ele>
        <time>2015-11-13T19:04:22Z</time>
      </trkpt>
      <trkpt lat="43.97321" lon="5.11239">
        <ele>331</ele>
        <time>2015-11-13T19:06:22Z</time>
      </trkpt>
      <trkpt lat="43.9726" lon="5.1122">
        <ele>339</ele>
        <time>2015-11-13T19:08:22Z</time>
      </trkpt>
      <trkpt lat="43.97232" lon="5.11214">
        <ele>343</ele>
        <time>2015-11-13T19:10:22Z</time>
      </trkpt>
      <trkpt lat="43.97185" lon="5.11178">
        <ele>352</ele>
        <time>2015-11-13T19:12:22Z</time>
      </trkpt>
      <trkpt lat="43.97174" lon="5.11167">
        <ele>354</ele>
        <time>2015-11-13T19:14:22Z</time>
      </trkpt>
      <trkpt lat="43.97143" lon="5.11156">
        <ele>358</ele>
        <time>2015-11-13T19:16:22Z</time>
      </trkpt>
      <trkpt lat="43.97123" lon="5.11134">
        <ele>361</ele>
        <time>2015-11-13T19:18:22Z</time>
      </trkpt>
      <trkpt lat="43.97114" lon="5.11098">
        <ele>363</ele>
        <time>2015-11-13T19:20:22Z</time>
      </trkpt>
      <trkpt lat="43.97082" lon="5.11076">
        <ele>366</ele>
        <time>2015-11-13T19:22:22Z</time>
      </trkpt>
      <trkpt lat="43.9704" lon="5.11055">
        <ele>369</ele>
        <time>2015-11-13T19:24:22Z</time>
      </trkpt>
      <trkpt lat="43.9698" lon="5.11037">
        <ele>373</ele>
        <time>2015-11-13T19:26:22Z</time>
      </trkpt>
      <trkpt lat="43.96882" lon="5.11">
        <ele>376</ele>
        <time>2015-11-13T19:28:22Z</time>
      </trkpt>
      <trkpt lat="43.96921" lon="5.10932">
        <ele>373</ele>
        <time>2015-11-13T19:30:22Z</time>
      </trkpt>
      <trkpt lat="43.96953" lon="5.10881">
        <ele>370</ele>
        <time>2015-11-13T19:32:22Z</time>
      </trkpt>
      <trkpt lat="43.96989" lon="5.10838">
        <ele>366</ele>
        <time>2015-11-13T19:34:22Z</time>
      </trkpt>
      <trkpt lat="43.97034" lon="5.10913">
        <ele>366</ele>
        <time>2015-11-13T19:36:22Z</time>
      </trkpt>
      <trkpt lat="43.96996" lon="5.10834">
        <ele>365</ele>
        <time>2015-11-13T19:38:22Z</time>
      </trkpt>
      <trkpt lat="43.97045" lon="5.10773">
        <ele>360</ele>
        <time>2015-11-13T19:40:22Z</time>
      </trkpt>
      <trkpt lat="43.97038" lon="5.1074">
        <ele>359</ele>
        <time>2015-11-13T19:42:22Z</time>
      </trkpt>
      <trkpt lat="43.97023" lon="5.1069">
        <ele>359</ele>
        <time>2015-11-13T19:44:22Z</time>
      </trkpt>
      <trkpt lat="43.96955" lon="5.10653">
        <ele>361</ele>
        <time>2015-11-13T19:46:22Z</time>
      </trkpt>
      <trkpt lat="43.96943" lon="5.10616">
        <ele>360</ele>
        <time>2015-11-13T19:48:22Z</time>
      </trkpt>
      <trkpt lat="43.96819" lon="5.10544">
        <ele>362</ele>
        <time>2015-11-13T19:50:22Z</time>
      </trkpt>
      <trkpt lat="43.96824" lon="5.10587">
        <ele>364</ele>
        <time>2015-11-13T19:52:22Z</time>
      </trkpt>
      <trkpt lat="43.9683" lon="5.10617">
        <ele>366</ele>
        <time>2015-11-13T19:54:22Z</time>
      </trkpt>
      <trkpt lat="43.96822" lon="5.10638">
        <ele>366</ele>
        <time>2015-11-13T19:56:22Z</time>
      </trkpt>
      <trkpt lat="43.96783" lon="5.10704">
        <ele>367</ele>
        <time>2015-11-13T19:58:22Z</time>
      </trkpt>
      <trkpt lat="43.9676" lon="5.10752">
        <ele>367</ele>
        <time>2015-11-13T20:00:22Z</time>
      </trkpt>
      <trkpt lat="43.96736" lon="5.10822">
        <ele>367</ele>
        <time>2015-11-13T20:02:22Z</time>
      </trkpt>
      <trkpt lat="43.96712" lon="5.10855">
        <ele>368</ele>
        <time>2015-11-13T20:04:22Z</time>
      </trkpt>
      <trkpt lat="43.96681" lon="5.10891">
        <ele>369</ele>
        <time>2015-11-13T20:06:22Z</time>
      </trkpt>
      <trkpt lat="43.9667" lon="5.10913">
        <ele>370</ele>
        <time>2015-11-13T20:08:22Z</time>
      </trkpt>
      <trkpt lat="43.96668" lon="5.10887">
        <ele>368</ele>
        <time>2015-11-13T20:10:22Z</time>
      </trkpt>
      <trkpt lat="43.96663" lon="5.10817">
        <ele>364</ele>
        <time>2015-11-13T20:12:22Z</time>
      </trkpt>
      <trkpt lat="43.96658" lon="5.10782">
        <ele>362</ele>
        <time>2015-11-13T20:14:22Z</time>
      </trkpt>
      <trkpt lat="43.96661" lon="5.10752">
        <ele>361</ele>
        <time>2015-11-13T20:16:22Z</time>
      </trkpt>
      <trkpt lat="43.96678" lon="5.10709">
        <ele>360</ele>
        <time>2015-11-13T20:18:22Z</time>
      </trkpt>
      <trkpt lat="43.96695" lon="5.10677">
        <ele>360</ele>
        <time>2015-11-13T20:20:22Z</time>
      </trkpt>
      <trkpt lat="43.96697" lon="5.10647">
        <ele>359</ele>
        <time>2015-11-13T20:22:22Z</time>
      </trkpt>
      <trkpt lat="43.96707" lon="5.10617">
        <ele>360</ele>
        <time>2015-11-13T20:24:22Z</time>
      </trkpt>
      <trkpt lat="43.96692" lon="5.10567">
        <ele>357</ele>
        <time>2015-11-13T20:26:22Z</time>
      </trkpt>
      <trkpt lat="43.96689" lon="5.10527">
        <ele>355</ele>
        <time>2015-11-13T20:28:22Z</time>
      </trkpt>
      <trkpt lat="43.96671" lon="5.10513">
        <ele>354</ele>
        <time>2015-11-13T20:30:22Z</time>
      </trkpt>
      <trkpt lat="43.96667" lon="5.1049">
        <ele>353</ele>
        <time>2015-11-13T20:32:22Z</time>
      </trkpt>
      <trkpt lat="43.96647" lon="5.10484">
        <ele>350</ele>
        <time>2015-11-13T20:34:22Z</time>
      </trkpt>
      <trkpt lat="43.96632" lon="5.10476">
        <ele>348</ele>
        <time>2015-11-13T20:36:22Z</time>
      </trkpt>
      <trkpt lat="43.96607" lon="5.10466">
        <ele>345</ele>
        <time>2015-11-13T20:38:22Z</time>
      </trkpt>
      <trkpt lat="43.96584" lon="5.10428">
        <ele>343</ele>
        <time>2015-11-13T20:40:22Z</time>
      </trkpt>
      <trkpt lat="43.96563" lon="5.10388">
        <ele>342</ele>
        <time>2015-11-13T20:42:22Z</time>
      </trkpt>
      <trkpt lat="43.96536" lon="5.10379">
        <ele>340</ele>
        <time>2015-11-13T20:44:22Z</time>
      </trkpt>
      <trkpt lat="43.96525" lon="5.10375">
        <ele>339</ele>
        <time>2015-11-13T20:46:22Z</time>
      </trkpt>
      <trkpt lat="43.96518" lon="5.10375">
        <ele>338</ele>
        <time>2015-11-13T20:48:22Z</time>
      </trkpt>
      <trkpt lat="43.96503" lon="5.10352">
        <ele>340</ele>
        <time>2015-11-13T20:50:22Z</time>
      </trkpt>
      <trkpt lat="43.96485" lon="5.10344">
        <ele>339</ele>
        <time>2015-11-13T20:52:22Z</time>
      </trkpt>
      <trkpt lat="43.96467" lon="5.10323">
        <ele>339</ele>
        <time>2015-11-13T20:54:22Z</time>
      </trkpt>
      <trkpt lat="43.96457" lon="5.10318">
        <ele>338</ele>
        <time>2015-11-13T20:56:22Z</time>
      </trkpt>
      <trkpt lat="43.9645" lon="5.10315">
        <ele>337</ele>
        <time>2015-11-13T20:58:22Z</time>
      </trkpt>
      <trkpt lat="43.96442" lon="5.10302">
        <ele>336</ele>
        <time>2015-11-13T21:00:22Z</time>
      </trkpt>
      <trkpt lat="43.96434" lon="5.103">
        <ele>336</ele>
        <time>2015-11-13T21:02:22Z</time>
      </trkpt>
      <trkpt lat="43.96422" lon="5.10287">
        <ele>335</ele>
        <time>2015-11-13T21:04:22Z</time>
      </trkpt>
      <trkpt lat="43.96414" lon="5.10286">
        <ele>334</ele>
        <time>2015-11-13T21:06:22Z</time>
      </trkpt>
      <trkpt lat="43.96413" lon="5.10303">
        <ele>333</ele>
        <time>2015-11-13T21:08:22Z</time>
      </trkpt>
      <trkpt lat="43.964" lon="5.10306">
        <ele>330</ele>
        <time>2015-11-13T21:10:22Z</time>
      </trkpt>
      <trkpt lat="43.96384" lon="5.10289">
        <ele>329</ele>
        <time>2015-11-13T21:12:22Z</time>
      </trkpt>
      <trkpt lat="43.96347" lon="5.1024">
        <ele>327</ele>
        <time>2015-11-13T21:14:22Z</time>
      </trkpt>
      <trkpt lat="43.9633" lon="5.10208">
        <ele>323</ele>
        <time>2015-11-13T21:16:22Z</time>
      </trkpt>
      <trkpt lat="43.96311" lon="5.10184">
        <ele>321</ele>
        <time>2015-11-13T21:18:22Z</time>
      </trkpt>
      <trkpt lat="43.96297" lon="5.10159">
        <ele>321</ele>
        <time>2015-11-13T21:20:22Z</time>
      </trkpt>
      <trkpt lat="43.96287" lon="5.10127">
        <ele>320</ele>
        <time>2015-11-13T21:22:22Z</time>
      </trkpt>
      <trkpt lat="43.96288" lon="5.10105">
        <ele>319</ele>
        <time>2015-11-13T21:24:22Z</time>
      </trkpt>
      <trkpt lat="43.96389" lon="5.10032">
        <ele>316</ele>
        <time>2015-11-13T21:26:22Z</time>
      </trkpt>
      <trkpt lat="43.96448" lon="5.09943">
        <ele>306</ele>
        <time>2015-11-13T21:28:22Z</time>
      </trkpt>
      <trkpt lat="43.96436" lon="5.09939">
        <ele>305</ele>
        <time>2015-11-13T21:30:22Z</time>
      </trkpt>
      <trkpt lat="43.96421" lon="5.09932">
        <ele>303</ele>
        <time>2015-11-13T21:32:22Z</time>
      </trkpt>
      <trkpt lat="43.96419" lon="5.0992">
        <ele>301</ele>
        <time>2015-11-13T21:34:22Z</time>
      </trkpt>
      <trkpt lat="43.96428" lon="5.09906">
        <ele>298</ele>
        <time>2015-11-13T21:36:22Z</time>
      </trkpt>
      <trkpt lat="43.9646" lon="5.09889">
        <ele>297</ele>
        <time>2015-11-13T21:38:22Z</time>
      </trkpt>
      <trkpt lat="43.96479" lon="5.09907">
        <ele>302</ele>
        <time>2015-11-13T21:40:22Z</time>
      </trkpt>
      <trkpt lat="43.96484" lon="5.09879">
        <ele>296</ele>
        <time>2015-11-13T21:42:22Z</time>
      </trkpt>
      <trkpt lat="43.96487" lon="5.09825">
        <ele>286</ele>
        <time>2015-11-13T21:44:22Z</time>
      </trkpt>
      <trkpt lat="43.96494" lon="5.09806">
        <ele>285</ele>
        <time>2015-11-13T21:46:22Z</time>
      </trkpt>
      <trkpt lat="43.96513" lon="5.09781">
        <ele>282</ele>
        <time>2015-11-13T21:48:22Z</time>
      </trkpt>
      <trkpt lat="43.96523" lon="5.09758">
        <ele>278</ele>
        <time>2015-11-13T21:50:22Z</time>
      </trkpt>
      <trkpt lat="43.96531" lon="5.09722">
        <ele>274</ele>
        <time>2015-11-13T21:52:22Z</time>
      </trkpt>
      <trkpt lat="43.96539" lon="5.09688">
        <ele>270</ele>
        <time>2015-11-13T21:54:22Z</time>
      </trkpt>
      <trkpt lat="43.96536" lon="5.09673">
        <ele>269</ele>
        <time>2015-11-13T21:56:22Z</time>
      </trkpt>
      <trkpt lat="43.96521" lon="5.09637">
        <ele>267</ele>
        <time>2015-11-13T21:58:22Z</time>
      </trkpt>
      <trkpt lat="43.96498" lon="5.09618">
        <ele>267</ele>
        <time>2015-11-13T22:00:22Z</time>
      </trkpt>
      <trkpt lat="43.96476" lon="5.09579">
        <ele>261</ele>
        <time>2015-11-13T22:02:22Z</time>
      </trkpt>
      <trkpt lat="43.96464" lon="5.09554">
        <ele>257</ele>
        <time>2015-11-13T22:04:22Z</time>
      </trkpt>
      <trkpt lat="43.9649" lon="5.09524">
        <ele>257</ele>
        <time>2015-11-13T22:06:22Z</time>
      </trkpt>
      <trkpt lat="43.96474" lon="5.09503">
        <ele>254</ele>
        <time>2015-11-13T22:08:22Z</time>
      </trkpt>
      <trkpt lat="43.96493" lon="5.09482">
        <ele>254</ele>
        <time>2015-11-13T22:10:22Z</time>
      </trkpt>
      <trkpt lat="43.96517" lon="5.09459">
        <ele>254</ele>
        <time>2015-11-13T22:12:22Z</time>
      </trkpt>
      <trkpt lat="43.96549" lon="5.09444">
        <ele>255</ele>
        <time>2015-11-13T22:14:22Z</time>
      </trkpt>
      <trkpt lat="43.96565" lon="5.0944">
        <ele>255</ele>
        <time>2015-11-13T22:16:22Z</time>
      </trkpt>
      <trkpt lat="43.96587" lon="5.09439">
        <ele>256</ele>
        <time>2015-11-13T22:18:22Z</time>
      </trkpt>
      <trkpt lat="43.96613" lon="5.09429">
        <ele>258</ele>
        <time>2015-11-13T22:20:22Z</time>
      </trkpt>
      <trkpt lat="43.96619" lon="5.09415">
        <ele>259</ele>
        <time>2015-11-13T22:22:22Z</time>
      </trkpt>
      <trkpt lat="43.96628" lon="5.09398">
        <ele>261</ele>
        <time>2015-11-13T22:24:22Z</time>
      </trkpt>
      <trkpt lat="43.96647" lon="5.09391">
        <ele>263</ele>
        <time>2015-11-13T22:26:22Z</time>
      </trkpt>
      <trkpt lat="43.96669" lon="5.0936">
        <ele>266</ele>
        <time>2015-11-13T22:28:22Z</time>
      </trkpt>
      <trkpt lat="43.96708" lon="5.09317">
        <ele>269</ele>
        <time>2015-11-13T22:30:22Z</time>
      </trkpt>
      <trkpt lat="43.96745" lon="5.09271">
        <ele>273</ele>
        <time>2015-11-13T22:32:22Z</time>
      </trkpt>
      <trkpt lat="43.96805" lon="5.09287">
        <ele>274</ele>
        <time>2015-11-13T22:34:22Z</time>
      </trkpt>
      <trkpt lat="43.96837" lon="5.093">
        <ele>275</ele>
        <time>2015-11-13T22:36:22Z</time>
      </trkpt>
      <trkpt lat="43.96906" lon="5.09307">
        <ele>277</ele>
        <time>2015-11-13T22:38:22Z</time>
      </trkpt>
      <trkpt lat="43.96991" lon="5.09312">
        <ele>279</ele>
        <time>2015-11-13T22:40:22Z</time>
      </trkpt>
      <trkpt lat="43.96982" lon="5.09288">
        <ele>277</ele>
        <time>2015-11-13T22:42:22Z</time>
      </trkpt>
      <trkpt lat="43.9698" lon="5.09251">
        <ele>274</ele>
        <time>2015-11-13T22:44:22Z</time>
      </trkpt>
      <trkpt lat="43.96981" lon="5.09221">
        <ele>271</ele>
        <time>2015-11-13T22:46:22Z</time>
      </trkpt>
      <trkpt lat="43.96987" lon="5.09195">
        <ele>269</ele>
        <time>2015-11-13T22:48:22Z</time>
      </trkpt>
      <trkpt lat="43.96995" lon="5.09166">
        <ele>266</ele>
        <time>2015-11-13T22:50:22Z</time>
      </trkpt>
      <trkpt lat="43.97032" lon="5.09136">
        <ele>266</ele>
        <time>2015-11-13T22:52:22Z</time>
      </trkpt>
      <trkpt lat="43.97031" lon="5.09102">
        <ele>264</ele>
        <time>2015-11-13T22:54:22Z</time>
      </trkpt>
      <trkpt lat="43.9703" lon="5.09086">
        <ele>263</ele>
        <time>2015-11-13T22:56:22Z</time>
      </trkpt>
      <trkpt lat="43.97042" lon="5.09059">
        <ele>262</ele>
        <time>2015-11-13T22:58:22Z</time>
      </trkpt>
      <trkpt lat="43.97035" lon="5.09033">
        <ele>261</ele>
        <time>2015-11-13T23:00:22Z</time>
      </trkpt>
      <trkpt lat="43.97015" lon="5.09002">
        <ele>260</ele>
        <time>2015-11-13T23:02:22Z</time>
      </trkpt>
      <trkpt lat="43.96978" lon="5.08986">
        <ele>259</ele>
        <time>2015-11-13T23:04:22Z</time>
      </trkpt>
      <trkpt lat="43.96943" lon="5.08971">
        <ele>258</ele>
        <time>2015-11-13T23:06:22Z</time>
      </trkpt>
      <trkpt lat="43.9691" lon="5.08956">
        <ele>257</ele>
        <time>2015-11-13T23:08:22Z</time>
      </trkpt>
      <trkpt lat="43.96879" lon="5.08939">
        <ele>256</ele>
        <time>2015-11-13T23:10:22Z</time>
      </trkpt>
      <trkpt lat="43.96813" lon="5.08928">
        <ele>254</ele>
        <time>2015-11-13T23:12:22Z</time>
      </trkpt>
      <trkpt lat="43.96782" lon="5.08908">
        <ele>253</ele>
        <time>2015-11-13T23:14:22Z</time>
      </trkpt>
      <trkpt lat="43.96743" lon="5.08883">
        <ele>252</ele>
        <time>2015-11-13T23:16:22Z</time>
      </trkpt>
      <trkpt lat="43.96675" lon="5.08828">
        <ele>254</ele>
        <time>2015-11-13T23:18:22Z</time>
      </trkpt>
      <trkpt lat="43.96693" lon="5.08818">
        <ele>254</ele>
        <time>2015-11-13T23:20:22Z</time>
      </trkpt>
      <trkpt lat="43.96723" lon="5.08811">
        <ele>254</ele>
        <time>2015-11-13T23:22:22Z</time>
      </trkpt>
      <trkpt lat="43.96726" lon="5.08777">
        <ele>254</ele>
        <time>2015-11-13T23:24:22Z</time>
      </trkpt>
      <trkpt lat="43.96743" lon="5.0875">
        <ele>253</ele>
        <time>2015-11-13T23:26:22Z</time>
      </trkpt>
      <trkpt lat="43.96763" lon="5.08732">
        <ele>251</ele>
        <time>2015-11-13T23:28:22Z</time>
      </trkpt>
      <trkpt lat="43.96791" lon="5.08727">
        <ele>249</ele>
        <time>2015-11-13T23:30:22Z</time>
      </trkpt>
      <trkpt lat="43.96787" lon="5.08673">
        <ele>244</ele>
        <time>2015-11-13T23:32:22Z</time>
      </trkpt>
      <trkpt lat="43.96777" lon="5.08658">
        <ele>243</ele>
        <time>2015-11-13T23:34:22Z</time>
      </trkpt>
      <trkpt lat="43.96783" lon="5.08597">
        <ele>236</ele>
        <time>2015-11-13T23:36:22Z</time>
      </trkpt>
      <trkpt lat="43.96746" lon="5.08561">
        <ele>231</ele>
        <time>2015-11-13T23:38:22Z</time>
      </trkpt>
      <trkpt lat="43.96714" lon="5.08513">
        <ele>227</ele>
        <time>2015-11-13T23:40:22Z</time>
      </trkpt>
      <trkpt lat="43.96698" lon="5.08455">
        <ele>223</ele>
        <time>2015-11-13T23:42:22Z</time>
      </trkpt>
      <trkpt lat="43.96675" lon="5.08398">
        <ele>220</ele>
        <time>2015-11-13T23:44:22Z</time>
      </trkpt>
      <trkpt lat="43.96709" lon="5.08395">
        <ele>221</ele>
        <time>2015-11-13T23:46:22Z</time>
      </trkpt>
      <trkpt lat="43.96747" lon="5.08408">
        <ele>221</ele>
        <time>2015-11-13T23:48:22Z</time>
      </trkpt>
      <trkpt lat="43.96768" lon="5.0838">
        <ele>224</ele>
        <time>2015-11-13T23:50:22Z</time>
      </trkpt>
      <trkpt lat="43.96806" lon="5.08408">
        <ele>226</ele>
        <time>2015-11-13T23:52:22Z</time>
      </trkpt>
      <trkpt lat="43.96887" lon="5.08468">
        <ele>232</ele>
        <time>2015-11-13T23:54:22Z</time>
      </trkpt>
      <trkpt lat="43.96956" lon="5.08513">
        <ele>234</ele>
        <time>2015-11-13T23:56:22Z</time>
      </trkpt>
      <trkpt lat="43.97021" lon="5.0856">
        <ele>238</ele>
        <time>2015-11-13T23:58:22Z</time>
      </trkpt>
      <trkpt lat="43.97051" lon="5.08611">
        <ele>241</ele>
        <time>2015-11-14T00:00:22Z</time>
      </trkpt>
      <trkpt lat="43.97084" lon="5.08655">
        <ele>241</ele>
        <time>2015-11-14T00:02:22Z</time>
      </trkpt>
      <trkpt lat="43.97154" lon="5.08687">
        <ele>246</ele>
        <time>2015-11-14T00:04:22Z</time>
      </trkpt>
      <trkpt lat="43.97208" lon="5.08719">
        <ele>247</ele>
        <time>2015-11-14T00:06:22Z</time>
      </trkpt>
      <trkpt lat="43.97323" lon="5.08751">
        <ele>251</ele>
        <time>2015-11-14T00:08:22Z</time>
      </trkpt>
      <trkpt lat="43.97347" lon="5.08764">
        <ele>249</ele>
        <time>2015-11-14T00:10:22Z</time>
      </trkpt>
      <trkpt lat="43.97369" lon="5.08789">
        <ele>247</ele>
        <time>2015-11-14T00:12:22Z</time>
      </trkpt>
      <trkpt lat="43.97379" lon="5.08814">
        <ele>248</ele>
        <time>2015-11-14T00:14:22Z</time>
      </trkpt>
      <trkpt lat="43.97352" lon="5.08866">
        <ele>257</ele>
        <time>2015-11-14T00:16:22Z</time>
      </trkpt>
      <trkpt lat="43.97347" lon="5.08914">
        <ele>262</ele>
        <time>2015-11-14T00:18:22Z</time>
      </trkpt>
      <trkpt lat="43.97341" lon="5.08963">
        <ele>267</ele>
        <time>2015-11-14T00:20:22Z</time>
      </trkpt>
      <trkpt lat="43.97345" lon="5.08997">
        <ele>270</ele>
        <time>2015-11-14T00:22:22Z</time>
      </trkpt>
      <trkpt lat="43.97347" lon="5.09057">
        <ele>274</ele>
        <time>2015-11-14T00:24:22Z</time>
      </trkpt>
      <trkpt lat="43.97355" lon="5.09078">
        <ele>275</ele>
        <time>2015-11-14T00:26:22Z</time>
      </trkpt>
      <trkpt lat="43.9737" lon="5.0906">
        <ele>272</ele>
        <time>2015-11-14T00:28:22Z</time>
      </trkpt>
      <trkpt lat="43.97407" lon="5.09057">
        <ele>269</ele>
        <time>2015-11-14T00:30:22Z</time>
      </trkpt>
      <trkpt lat="43.97435" lon="5.09041">
        <ele>264</ele>
        <time>2015-11-14T00:32:22Z</time>
      </trkpt>
      <trkpt lat="43.97474" lon="5.09049">
        <ele>259</ele>
        <time>2015-11-14T00:34:22Z</time>
      </trkpt>
      <trkpt lat="43.97512" lon="5.09064">
        <ele>256</ele>
        <time>2015-11-14T00:36:22Z</time>
      </trkpt>
      <trkpt lat="43.97546" lon="5.0909">
        <ele>256</ele>
        <time>2015-11-14T00:38:22Z</time>
      </trkpt>
      <trkpt lat="43.97564" lon="5.09125">
        <ele>260</ele>
        <time>2015-11-14T00:40:22Z</time>
      </trkpt>
      <trkpt lat="43.97594" lon="5.09119">
        <ele>258</ele>
        <time>2015-11-14T00:42:22Z</time>
      </trkpt>
      <trkpt lat="43.97594" lon="5.09091">
        <ele>253</ele>
        <time>2015-11-14T00:44:22Z</time>
      </trkpt>
      <trkpt lat="43.97609" lon="5.09032">
        <ele>246</ele>
        <time>2015-11-14T00:46:22Z</time>
      </trkpt>
      <trkpt lat="43.97624" lon="5.0896">
        <ele>235</ele>
        <time>2015-11-14T00:48:22Z</time>
      </trkpt>
      <trkpt lat="43.97651" lon="5.08944">
        <ele>236</ele>
        <time>2015-11-14T00:50:22Z</time>
      </trkpt>
      <trkpt lat="43.97675" lon="5.08925">
        <ele>235</ele>
        <time>2015-11-14T00:52:22Z</time>
      </trkpt>
      <trkpt lat="43.97667" lon="5.08893">
        <ele>229</ele>
        <time>2015-11-14T00:54:22Z</time>
      </trkpt>
      <trkpt lat="43.97667" lon="5.08874">
        <ele>227</ele>
        <time>2015-11-14T00:56:22Z</time>
      </trkpt>
      <trkpt lat="43.97692" lon="5.08825">
        <ele>226</ele>
        <time>2015-11-14T00:58:22Z</time>
      </trkpt>
      <trkpt lat="43.97723" lon="5.08772">
        <ele>223</ele>
        <time>2015-11-14T01:00:22Z</time>
      </trkpt>
      <trkpt lat="43.97731" lon="5.08751">
        <ele>220</ele>
        <time>2015-11-14T01:02:22Z</time>
      </trkpt>
      <trkpt lat="43.97733" lon="5.08708">
        <ele>216</ele>
        <time>2015-11-14T01:04:22Z</time>
      </trkpt>
      <trkpt lat="43.9773" lon="5.0868">
        <ele>213</ele>
        <time>2015-11-14T01:06:22Z</time>
      </trkpt>
      <trkpt lat="43.97752" lon="5.08662">
        <ele>213</ele>
        <time>2015-11-14T01:08:22Z</time>
      </trkpt>
      <trkpt lat="43.97781" lon="5.08654">
        <ele>212</ele>
        <time>2015-11-14T01:10:22Z</time>
      </trkpt>
      <trkpt lat="43.97821" lon="5.08637">
        <ele>210</ele>
        <time>2015-11-14T01:12:22Z</time>
      </trkpt>
      <trkpt lat="43.97845" lon="5.08655">
        <ele>210</ele>
        <time>2015-11-14T01:14:22Z</time>
      </trkpt>
      <trkpt lat="43.97859" lon="5.08655">
        <ele>208</ele>
        <time>2015-11-14T01:16:22Z</time>
      </trkpt>
      <trkpt lat="43.97861" lon="5.08632">
        <ele>204</ele>
        <time>2015-11-14T01:18:22Z</time>
      </trkpt>
      <trkpt lat="43.97855" lon="5.08592">
        <ele>199</ele>
        <time>2015-11-14T01:20:22Z</time>
      </trkpt>
      <trkpt lat="43.97876" lon="5.08601">
        <ele>197</ele>
        <time>2015-11-14T01:22:22Z</time>
      </trkpt>
      <trkpt lat="43.97895" lon="5.08622">
        <ele>197</ele>
        <time>2015-11-14T01:24:22Z</time>
      </trkpt>
      <trkpt lat="43.97924" lon="5.08649">
        <ele>197</ele>
        <time>2015-11-14T01:26:22Z</time>
      </trkpt>
      <trkpt lat="43.97943" lon="5.08673">
        <ele>199</ele>
        <time>2015-11-14T01:28:22Z</time>
      </trkpt>
      <trkpt lat="43.97958" lon="5.08696">
        <ele>202</ele>
        <time>2015-11-14T01:30:22Z</time>
      </trkpt>
      <trkpt lat="43.9801" lon="5.08704">
        <ele>199</ele>
        <time>2015-11-14T01:32:22Z</time>
      </trkpt>
      <trkpt lat="43.98054" lon="5.08691">
        <ele>193</ele>
        <time>2015-11-14T01:34:22Z</time>
      </trkpt>
      <trkpt lat="43.98084" lon="5.08705">
        <ele>193</ele>
        <time>2015-11-14T01:36:22Z</time>
      </trkpt>
      <trkpt lat="43.98108" lon="5.08761">
        <ele>199</ele>
        <time>2015-11-14T01:38:22Z</time>
      </trkpt>
      <trkpt lat="43.98149" lon="5.08824">
        <ele>200</ele>
        <time>2015-11-14T01:40:22Z</time>
      </trkpt>
      <trkpt lat="43.98136" lon="5.08893">
        <ele>207</ele>
        <time>2015-11-14T01:42:22Z</time>
      </trkpt>
      <trkpt lat="43.98115" lon="5.08966">
        <ele>214</ele>
        <time>2015-11-14T01:44:22Z</time>
      </trkpt>
      <trkpt lat="43.98098" lon="5.09031">
        <ele>220</ele>
        <time>2015-11-14T01:46:22Z</time>
      </trkpt>
      <trkpt lat="43.98126" lon="5.0899">
        <ele>213</ele>
        <time>2015-11-14T01:48:22Z</time>
      </trkpt>
      <trkpt lat="43.98148" lon="5.08921">
        <ele>206</ele>
        <time>2015-11-14T01:50:22Z</time>
      </trkpt>
      <trkpt lat="43.98175" lon="5.08901">
        <ele>200</ele>
        <time>2015-11-14T01:52:22Z</time>
      </trkpt>
      <trkpt lat="43.98202" lon="5.08896">
        <ele>200</ele>
        <time>2015-11-14T01:54:22Z</time>
      </trkpt>
      <trkpt lat="43.9823" lon="5.08874">
        <ele>198</ele>
        <time>2015-11-14T01:56:22Z</time>
      </trkpt>
      <trkpt lat="43.98248" lon="5.08839">
        <ele>193</ele>
        <time>2015-11-14T01:58:22Z</time>
      </trkpt>
      <trkpt lat="43.98292" lon="5.08802">
        <ele>188</ele>
        <time>2015-11-14T02:00:22Z</time>
      </trkpt>
      <trkpt lat="43.98312" lon="5.08832">
        <ele>190</ele>
        <time>2015-11-14T02:02:22Z</time>
      </trkpt>
      <trkpt lat="43.98334" lon="5.08884">
        <ele>198</ele>
        <time>2015-11-14T02:04:22Z</time>
      </trkpt>
      <trkpt lat="43.9837" lon="5.08879">
        <ele>195</ele>
        <time>2015-11-14T02:06:22Z</time>
      </trkpt>
      <trkpt lat="43.98399" lon="5.089">
        <ele>195</ele>
        <time>2015-11-14T02:08:22Z</time>
      </trkpt>
      <trkpt lat="43.98408" lon="5.08914">
        <ele>196</ele>
        <time>2015-11-14T02:10:22Z</time>
      </trkpt>
      <trkpt lat="43.98435" lon="5.08916">
        <ele>192</ele>
        <time>2015-11-14T02:12:22Z</time>
      </trkpt>
      <trkpt lat="43.98458" lon="5.0889">
        <ele>187</ele>
        <time>2015-11-14T02:14:22Z</time>
      </trkpt>
      <trkpt lat="43.98472" lon="5.08867">
        <ele>184</ele>
        <time>2015-11-14T02:16:22Z</time>
      </trkpt>
      <trkpt lat="43.98497" lon="5.08865">
        <ele>181</ele>
        <time>2015-11-14T02:18:22Z</time>
      </trkpt>
      <trkpt lat="43.98501" lon="5.08838">
        <ele>180</ele>
        <time>2015-11-14T02:20:22Z</time>
      </trkpt>
      <trkpt lat="43.98544" lon="5.08789">
        <ele>175</ele>
        <time>2015-11-14T02:22:22Z</time>
      </trkpt>
      <trkpt lat="43.98586" lon="5.08864">
        <ele>172</ele>
        <time>2015-11-14T02:24:22Z</time>
      </trkpt>
      <trkpt lat="43.98599" lon="5.0891">
        <ele>172</ele>
        <time>2015-11-14T02:26:22Z</time>
      </trkpt>
      <trkpt lat="43.9864" lon="5.08922">
        <ele>175</ele>
        <time>2015-11-14T02:28:22Z</time>
      </trkpt>
      <trkpt lat="43.98552" lon="5.0896">
        <ele>179</ele>
        <time>2015-11-14T02:30:22Z</time>
      </trkpt>
      <trkpt lat="43.98528" lon="5.0899">
        <ele>181</ele>
        <time>2015-11-14T02:32:22Z</time>
      </trkpt>
      <trkpt lat="43.98444" lon="5.09063">
        <ele>200</ele>
        <time>2015-11-14T02:34:22Z</time>
      </trkpt>
      <trkpt lat="43.98464" lon="5.0908">
        <ele>199</ele>
        <time>2015-11-14T02:36:22Z</time>
      </trkpt>
      <trkpt lat="43.98499" lon="5.09096">
        <ele>196</ele>
        <time>2015-11-14T02:38:22Z</time>
      </trkpt>
      <trkpt lat="43.98559" lon="5.09092">
        <ele>195</ele>
        <time>2015-11-14T02:40:22Z</time>
      </trkpt>
      <trkpt lat="43.98576" lon="5.09137">
        <ele>195</ele>
        <time>2015-11-14T02:42:22Z</time>
      </trkpt>
      <trkpt lat="43.98564" lon="5.09196">
        <ele>195</ele>
        <time>2015-11-14T02:44:22Z</time>
      </trkpt>
      <trkpt lat="43.9858" lon="5.0925">
        <ele>189</ele>
        <time>2015-11-14T02:46:22Z</time>
      </trkpt>
      <trkpt lat="43.98591" lon="5.09316">
        <ele>183</ele>
        <time>2015-11-14T02:48:22Z</time>
      </trkpt>
      <trkpt lat="43.98557" lon="5.09373">
        <ele>182</ele>
        <time>2015-11-14T02:50:22Z</time>
      </trkpt>
      <trkpt lat="43.98526" lon="5.09457">
        <ele>183</ele>
        <time>2015-11-14T02:52:22Z</time>
      </trkpt>
      <trkpt lat="43.98481" lon="5.09545">
        <ele>186</ele>
        <time>2015-11-14T02:54:22Z</time>
      </trkpt>
      <trkpt lat="43.98466" lon="5.09583">
        <ele>187</ele>
        <time>2015-11-14T02:56:22Z</time>
      </trkpt>
      <trkpt lat="43.98437" lon="5.09615">
        <ele>191</ele>
        <time>2015-11-14T02:58:22Z</time>
      </trkpt>
      <trkpt lat="43.98394" lon="5.09585">
        <ele>201</ele>
        <time>2015-11-14T03:00:22Z</time>
      </trkpt>
      <trkpt lat="43.98364" lon="5.09546">
        <ele>211</ele>
        <time>2015-11-14T03:02:22Z</time>
      </trkpt>
      <trkpt lat="43.98353" lon="5.09613">
        <ele>213</ele>
        <time>2015-11-14T03:04:22Z</time>
      </trkpt>
      <trkpt lat="43.98345" lon="5.09648">
        <ele>216</ele>
        <time>2015-11-14T03:06:22Z</time>
      </trkpt>
      <trkpt lat="43.98349" lon="5.09688">
        <ele>214</ele>
        <time>2015-11-14T03:08:22Z</time>
      </trkpt>
      <trkpt lat="43.98338" lon="5.09704">
        <ele>217</ele>
        <time>2015-11-14T03:10:22Z</time>
      </trkpt>
      <trkpt lat="43.98323" lon="5.09651">
        <ele>222</ele>
        <time>2015-11-14T03:12:22Z</time>
      </trkpt>
      <trkpt lat="43.98294" lon="5.09657">
        <ele>228</ele>
        <time>2015-11-14T03:14:22Z</time>
      </trkpt>
      <trkpt lat="43.98264" lon="5.09665">
        <ele>234</ele>
        <time>2015-11-14T03:16:22Z</time>
      </trkpt>
      <trkpt lat="43.98242" lon="5.0967">
        <ele>239</ele>
        <time>2015-11-14T03:18:22Z</time>
      </trkpt>
      <trkpt lat="43.98224" lon="5.09685">
        <ele>243</ele>
        <time>2015-11-14T03:20:22Z</time>
      </trkpt>
      <trkpt lat="43.98183" lon="5.09751">
        <ele>244</ele>
        <time>2015-11-14T03:22:22Z</time>
      </trkpt>
      <trkpt lat="43.98149" lon="5.09796">
        <ele>241</ele>
        <time>2015-11-14T03:24:22Z</time>
      </trkpt>
      <trkpt lat="43.98119" lon="5.0982">
        <ele>241</ele>
        <time>2015-11-14T03:26:22Z</time>
      </trkpt>
      <trkpt lat="43.98139" lon="5.09884">
        <ele>228</ele>
        <time>2015-11-14T03:28:22Z</time>
      </trkpt>
      <trkpt lat="43.98164" lon="5.09958">
        <ele>213</ele>
        <time>2015-11-14T03:30:22Z</time>
      </trkpt>
      <trkpt lat="43.98186" lon="5.10018">
        <ele>206</ele>
        <time>2015-11-14T03:32:22Z</time>
      </trkpt>
      <trkpt lat="43.98181" lon="5.10062">
        <ele>207</ele>
        <time>2015-11-14T03:34:22Z</time>
      </trkpt>
      <trkpt lat="43.98139" lon="5.10116">
        <ele>210</ele>
        <time>2015-11-14T03:36:22Z</time>
      </trkpt>
      <trkpt lat="43.98109" lon="5.10151">
        <ele>212</ele>
        <time>2015-11-14T03:38:22Z</time>
      </trkpt>
      <trkpt lat="43.98075" lon="5.10207">
        <ele>217</ele>
        <time>2015-11-14T03:40:22Z</time>
      </trkpt>
      <trkpt lat="43.98104" lon="5.10219">
        <ele>220</ele>
        <time>2015-11-14T03:42:22Z</time>
      </trkpt>
      <trkpt lat="43.98067" lon="5.1025">
        <ele>222</ele>
        <time>2015-11-14T03:44:22Z</time>
      </trkpt>
      <trkpt lat="43.98054" lon="5.103">
        <ele>225</ele>
        <time>2015-11-14T03:46:22Z</time>
      </trkpt>
      <trkpt lat="43.98019" lon="5.1034">
        <ele>227</ele>
        <time>2015-11-14T03:48:22Z</time>
      </trkpt>
      <trkpt lat="43.98001" lon="5.10377">
        <ele>228</ele>
        <time>2015-11-14T03:50:22Z</time>
      </trkpt>
      <trkpt lat="43.97983" lon="5.1044">
        <ele>235</ele>
        <time>2015-11-14T03:52:22Z</time>
      </trkpt>
      <trkpt lat="43.97943" lon="5.10496">
        <ele>240</ele>
        <time>2015-11-14T03:54:22Z</time>
      </trkpt>
      <trkpt lat="43.97931" lon="5.1053">
        <ele>245</ele>
        <time>2015-11-14T03:56:22Z</time>
      </trkpt>
      <trkpt lat="43.97968" lon="5.1051">
        <ele>247</ele>
        <time>2015-11-14T03:58:22Z</time>
      </trkpt>
      <trkpt lat="43.97919" lon="5.10574">
        <ele>251</ele>
        <time>2015-11-14T04:00:22Z</time>
      </trkpt>
      <trkpt lat="43.97915" lon="5.10616">
        <ele>258</ele>
        <time>2015-11-14T04:02:22Z</time>
      </trkpt>
      <trkpt lat="43.97905" lon="5.10665">
        <ele>266</ele>
        <time>2015-11-14T04:04:22Z</time>
      </trkpt>
      <trkpt lat="43.97886" lon="5.10711">
        <ele>271</ele>
        <time>2015-11-14T04:06:22Z</time>
      </trkpt>
      <trkpt lat="43.97865" lon="5.1077">
        <ele>276</ele>
        <time>2015-11-14T04:08:22Z</time>
      </trkpt>
      <trkpt lat="43.97841" lon="5.1081">
        <ele>273</ele>
        <time>2015-11-14T04:10:22Z</time>
      </trkpt>
      <trkpt lat="43.978" lon="5.10873">
        <ele>272</ele>
        <time>2015-11-14T04:12:22Z</time>
      </trkpt>
    </trkseg>
  </trk>
</gpx>